Loodiep — A8ZO7 — position and weather

sailwx.info

Track history (hours):
 
Tides and Currents Weather Stations Pressure Air Temp Water Temp Dewpoint Dewpoint Depression Visibility Wind Speed Wind Dir Waves Ship Positions

Loodiep

Last reported at 2016-Aug-25 07:33 UTC. Time now 2016-Aug-25 08:05 UTC.
Position N 37°51' W 009°33'.

Length 108 m; draft 7.2 m.

Type: Cargo ship. MMSI: 636015263.

Date/timePositionNaut miles runAvg speedWind from/ knotsBaromVisibWave heightAir tempDewpointWater temp
2016-Aug-25 07:33N 37°51' W 009°33'9 8.7
2016-Aug-25 06:33N 37°43' W 009°33'17 8.8
2016-Aug-25 04:33N 37°26' W 009°28'8 8.3
2016-Aug-25 03:33N 37°17' W 009°26'8 8.1
2016-Aug-25 02:33N 37°10' W 009°24'8 8.0
2016-Aug-25 01:33N 37°02' W 009°22'8 8.0
2016-Aug-25 00:33N 36°54' W 009°19'8 8.0
2016-Aug-24 23:33N 36°48' W 009°13'8 8.2
2016-Aug-24 22:33N 36°44' W 009°04'45 8.9
2016-Aug-24 17:31N 36°29' W 008°11'9 8.9
2016-Aug-24 16:33N 36°27' W 008°01'9 9.0
2016-Aug-24 15:33N 36°24' W 007°51'115 9.6
2016-Aug-24 03:31N 35°59' W 005°31'9 8.2
2016-Aug-24 02:24N 36°01' W 005°20'7 7.9
2016-Aug-24 01:33N 36°02' W 005°12'161 8.8
2016-Aug-23 07:10N 36°43' W 001°58'9 9.9
2016-Aug-23 06:15N 36°51' W 001°54'  
2016-Aug-20 22:32N 37°06' W 000°04'10 9.8
2016-Aug-20 21:30N 37°07' E 000°09'1010.0
2016-Aug-20 20:32N 37°08' E 000°21'1110.1
2016-Aug-20 19:28N 37°09' E 000°34'1010.7
2016-Aug-20 18:31N 37°10' E 000°47'1010.5
2016-Aug-20 17:33N 37°11' E 000°60'1110.9
2016-Aug-20 16:32N 37°12' E 001°13'1010.4
2016-Aug-20 15:33N 37°13' E 001°26'1210.1
2016-Aug-20 14:19N 37°15' E 001°42'1010.2
2016-Aug-20 13:19N 37°16' E 001°54'810.4
2016-Aug-20 12:33N 37°16' E 002°04'1010.3
2016-Aug-20 11:33N 37°17' E 002°17'1410.6
2016-Aug-20 10:12N 37°18' E 002°35'710.9
2016-Aug-20 09:33N 37°19' E 002°44'1111.6
2016-Aug-20 08:33N 37°21' E 002°58'2211.1
2016-Aug-20 06:33N 37°22' E 003°26'1111.2
2016-Aug-20 05:33N 37°24' E 003°40'1511.4
2016-Aug-20 04:12N 37°25' E 003°60'811.4
2016-Aug-20 03:31N 37°26' E 004°09'1111.5
2016-Aug-20 02:33N 37°27' E 004°23'1111.5
2016-Aug-20 01:33N 37°28' E 004°38'1311.3
2016-Aug-20 00:25N 37°29' E 004°54'2311.3
2016-Aug-19 22:24N 37°31' E 005°22'3411.1
2016-Aug-19 19:18N 37°25' E 006°05'  
Track history (hours):
 
Tides and Currents Weather Stations Pressure Air Temp Water Temp Dewpoint Dewpoint Depression Visibility Wind Speed Wind Dir Waves Ship Positions

Loodiep

Last reported at 2016-Aug-25 07:33 UTC. Time now 2016-Aug-25 08:05 UTC.
Position N 37°51' W 009°33'.

Length 108 m; draft 7.2 m.

Type: Cargo ship. MMSI: 636015263.

Date/timePositionNaut miles runAvg speedWind from/ knotsBaromVisibWave heightAir tempDewpointWater temp
2016-Aug-25 07:33N 37°51' W 009°33'9 8.7
2016-Aug-25 06:33N 37°43' W 009°33'17 8.8
2016-Aug-25 04:33N 37°26' W 009°28'8 8.3
2016-Aug-25 03:33N 37°17' W 009°26'8 8.1
2016-Aug-25 02:33N 37°10' W 009°24'8 8.0
2016-Aug-25 01:33N 37°02' W 009°22'8 8.0
2016-Aug-25 00:33N 36°54' W 009°19'8 8.0
2016-Aug-24 23:33N 36°48' W 009°13'8 8.2
2016-Aug-24 22:33N 36°44' W 009°04'45 8.9
2016-Aug-24 17:31N 36°29' W 008°11'9 8.9
2016-Aug-24 16:33N 36°27' W 008°01'9 9.0
2016-Aug-24 15:33N 36°24' W 007°51'115 9.6
2016-Aug-24 03:31N 35°59' W 005°31'9 8.2
2016-Aug-24 02:24N 36°01' W 005°20'7 7.9
2016-Aug-24 01:33N 36°02' W 005°12'161 8.8
2016-Aug-23 07:10N 36°43' W 001°58'9 9.9
2016-Aug-23 06:15N 36°51' W 001°54'  
2016-Aug-20 22:32N 37°06' W 000°04'10 9.8
2016-Aug-20 21:30N 37°07' E 000°09'1010.0
2016-Aug-20 20:32N 37°08' E 000°21'1110.1
2016-Aug-20 19:28N 37°09' E 000°34'1010.7
2016-Aug-20 18:31N 37°10' E 000°47'1010.5
2016-Aug-20 17:33N 37°11' E 000°60'1110.9
2016-Aug-20 16:32N 37°12' E 001°13'1010.4
2016-Aug-20 15:33N 37°13' E 001°26'1210.1
2016-Aug-20 14:19N 37°15' E 001°42'1010.2
2016-Aug-20 13:19N 37°16' E 001°54'810.4
2016-Aug-20 12:33N 37°16' E 002°04'1010.3
2016-Aug-20 11:33N 37°17' E 002°17'1410.6
2016-Aug-20 10:12N 37°18' E 002°35'710.9
2016-Aug-20 09:33N 37°19' E 002°44'1111.6
2016-Aug-20 08:33N 37°21' E 002°58'2211.1
2016-Aug-20 06:33N 37°22' E 003°26'1111.2
2016-Aug-20 05:33N 37°24' E 003°40'1511.4
2016-Aug-20 04:12N 37°25' E 003°60'811.4
2016-Aug-20 03:31N 37°26' E 004°09'1111.5
2016-Aug-20 02:33N 37°27' E 004°23'1111.5
2016-Aug-20 01:33N 37°28' E 004°38'1311.3
2016-Aug-20 00:25N 37°29' E 004°54'2311.3
2016-Aug-19 22:24N 37°31' E 005°22'3411.1
2016-Aug-19 19:18N 37°25' E 006°05'  

Dump ship's entire track history